Time;durP1;ratioP1;P1;durP2;ratioP2;P2;SDS_P1;SDS_P2;PMS_P1;PMS_P2;Temp;Humidity;BMP_temperature;BMP_pressure;BME280_temperature;BME280_humidity;BME280_pressure;Samples;Min_cycle;Max_cycle;Signal;HPM_P1;HPM_P2
2023/02/27 00:01:32;;;;;;;16.40;5.78;;;;;;;9.58;56.47;93928.88;5033188;28;20041;-73
2023/02/27 00:03:59;;;;;;;15.25;5.63;;;;;;;9.50;57.99;93921.00;5049953;28;20028;-73
2023/02/27 00:06:25;;;;;;;16.25;6.15;;;;;;;9.47;56.95;93924.72;5049811;28;20036;-73
2023/02/27 00:08:50;;;;;;;18.95;5.97;;;;;;;9.49;57.01;93919.38;5033214;28;20418;-73
2023/02/27 00:11:15;;;;;;;14.38;5.50;;;;;;;9.55;57.63;93929.97;5049843;28;20033;-73
2023/02/27 00:13:41;;;;;;;17.02;5.60;;;;;;;9.44;57.92;93930.16;5033426;28;20094;-73
2023/02/27 00:16:07;;;;;;;18.23;5.43;;;;;;;9.63;55.58;93924.91;5051013;28;20198;-73
2023/02/27 00:18:32;;;;;;;19.80;4.45;;;;;;;9.98;54.77;93917.38;5049747;28;20099;-74
2023/02/27 00:20:58;;;;;;;21.08;5.05;;;;;;;10.23;54.07;93905.50;5033110;28;20029;-74
2023/02/27 00:23:23;;;;;;;14.27;5.28;;;;;;;10.31;54.61;93907.38;5049694;28;20411;-73
2023/02/27 00:25:49;;;;;;;24.52;6.00;;;;;;;10.33;55.47;93915.81;5049625;28;20021;-73
2023/02/27 00:28:14;;;;;;;12.35;5.50;;;;;;;10.33;55.10;93908.84;5032745;28;20056;-74
2023/02/27 00:30:40;;;;;;;24.23;6.00;;;;;;;10.32;54.27;93901.22;5050542;28;20021;-73
2023/02/27 00:33:05;;;;;;;14.20;5.35;;;;;;;10.36;54.65;93910.34;5050866;28;20033;-73
2023/02/27 00:35:31;;;;;;;19.42;5.72;;;;;;;10.43;54.36;93912.19;5036939;28;20093;-74
2023/02/27 00:37:56;;;;;;;19.38;4.63;;;;;;;10.47;54.05;93912.72;5053396;28;20037;-73
2023/02/27 00:40:24;;;;;;;19.10;5.57;;;;;;;10.55;54.76;93915.38;5053371;28;20044;-73
2023/02/27 00:42:50;;;;;;;23.80;4.70;;;;;;;10.46;54.49;93905.91;5053317;28;20037;-73
2023/02/27 00:45:15;;;;;;;11.80;4.03;;;;;;;10.45;53.80;93899.91;5020315;28;20041;-74
2023/02/27 00:47:41;;;;;;;16.67;3.88;;;;;;;10.41;53.79;93903.75;5036389;28;20041;-73
2023/02/27 00:50:07;;;;;;;16.08;3.92;;;;;;;10.42;54.52;93908.00;5020106;28;20048;-73
2023/02/27 00:52:33;;;;;;;17.52;4.93;;;;;;;10.56;54.01;93917.03;5053096;28;20028;-73
2023/02/27 00:54:59;;;;;;;13.32;3.60;;;;;;;10.59;53.97;93916.75;5036921;28;20025;-74
2023/02/27 00:57:24;;;;;;;16.52;4.85;;;;;;;10.47;54.06;93897.13;5036449;28;20099;-73
2023/02/27 00:59:50;;;;;;;17.42;4.80;;;;;;;10.46;54.24;93918.88;5054168;28;20036;-73
2023/02/27 01:02:15;;;;;;;24.88;4.65;;;;;;;10.52;53.75;93929.47;5019773;28;20029;-73
2023/02/27 01:04:41;;;;;;;22.67;5.63;;;;;;;10.51;53.52;93925.25;5036304;28;20110;-73
2023/02/27 01:07:07;;;;;;;17.95;4.05;;;;;;;10.46;54.24;93921.47;5036185;28;20032;-73
2023/02/27 01:09:32;;;;;;;18.23;5.65;;;;;;;10.28;53.85;93919.69;5036490;28;20590;-73
2023/02/27 01:11:57;;;;;;;13.70;4.72;;;;;;;10.30;54.17;93937.69;5036100;28;20565;-74
2023/02/27 01:14:23;;;;;;;18.80;7.07;;;;;;;10.17;53.97;93916.44;5052949;28;20380;-73
2023/02/27 01:16:49;;;;;;;20.70;8.05;;;;;;;10.26;54.05;93931.16;5019607;28;20029;-73
2023/02/27 01:19:14;;;;;;;25.40;8.10;;;;;;;10.12;54.28;93927.28;5052736;28;20530;-73
2023/02/27 01:21:40;;;;;;;21.25;7.53;;;;;;;9.91;55.40;93913.72;5019436;28;20029;-74
2023/02/27 01:24:07;;;;;;;16.80;6.47;;;;;;;10.03;55.51;93922.97;5052534;28;20032;-73
2023/02/27 01:26:32;;;;;;;23.95;5.93;;;;;;;10.05;55.67;93915.84;5053600;28;20040;-73
2023/02/27 01:28:58;;;;;;;25.45;6.95;;;;;;;10.11;55.23;93923.03;5035989;28;20029;-73
2023/02/27 01:31:23;;;;;;;25.67;6.68;;;;;;;9.95;56.24;93928.88;5019244;28;20036;-73
2023/02/27 01:33:48;;;;;;;21.67;6.47;;;;;;;9.87;56.64;93925.38;5052576;28;20040;-73
2023/02/27 01:36:14;;;;;;;15.10;6.72;;;;;;;9.79;56.19;93932.06;5052567;28;20087;-73
2023/02/27 01:38:39;;;;;;;21.13;6.75;;;;;;;9.75;56.77;93935.94;5035766;28;20040;-73
2023/02/27 01:41:06;;;;;;;17.45;5.90;;;;;;;9.74;57.10;93939.47;5052215;28;20111;-73
2023/02/27 01:43:31;;;;;;;17.95;4.18;;;;;;;9.93;57.06;93953.31;5051944;28;20040;-74
2023/02/27 01:45:58;;;;;;;19.02;5.35;;;;;;;10.09;56.55;93961.31;5051236;28;20055;-74
2023/02/27 01:48:30;;;;;;;19.63;4.82;;;;;;;10.31;55.69;93961.88;5035775;28;20025;-73
2023/02/27 01:50:57;;;;;;;17.08;4.55;;;;;;;10.36;55.60;93952.69;5035352;28;20117;-74
2023/02/27 01:53:24;;;;;;;17.70;5.25;;;;;;;10.45;55.90;93961.41;5052089;28;20029;-74
2023/02/27 01:55:51;;;;;;;17.00;5.25;;;;;;;10.58;55.12;93954.03;5035150;28;20525;-73
2023/02/27 01:58:17;;;;;;;18.80;4.65;;;;;;;10.77;54.90;93954.88;5035500;28;20037;-73
2023/02/27 02:00:42;;;;;;;22.90;4.88;;;;;;;10.76;55.57;93974.03;5035224;28;20055;-73
2023/02/27 02:03:47;;;;;;;21.98;7.97;;;;;;;10.46;55.46;93973.41;5035367;28;20336;-73
2023/02/27 02:06:13;;;;;;;31.40;7.47;;;;;;;10.35;54.97;93981.41;5030678;28;20037;-73
2023/02/27 02:08:41;;;;;;;25.67;8.48;;;;;;;10.06;55.50;93969.38;5035156;28;20561;-73
2023/02/27 02:11:07;;;;;;;28.08;9.05;;;;;;;10.13;55.21;93998.97;5035252;28;20410;-73
2023/02/27 02:13:33;;;;;;;31.30;10.30;;;;;;;10.11;54.79;93994.88;5051485;28;20056;-73
2023/02/27 02:16:13;;;;;;;21.80;8.70;;;;;;;10.07;55.33;93994.34;5018538;28;20480;-73
2023/02/27 02:18:52;;;;;;;26.42;9.75;;;;;;;10.06;55.62;94001.34;5019729;28;20052;-73
2023/02/27 02:21:45;;;;;;;22.85;10.50;;;;;;;10.23;57.62;94045.66;5051532;28;20021;-73
2023/02/27 02:24:29;;;;;;;20.00;9.23;;;;;;;10.25;57.36;94156.16;5035131;28;20091;-73
2023/02/27 02:27:00;;;;;;;18.42;4.10;;;;;;;10.20;59.37;94183.50;5053015;28;20025;-73
2023/02/27 02:29:35;;;;;;;10.50;1.67;;;;;;;10.15;61.52;94189.09;5053261;28;20033;-73
2023/02/27 02:32:45;;;;;;;6.15;1.65;;;;;;;9.96;63.90;94209.91;5051430;28;20025;-73
2023/02/27 02:35:26;;;;;;;3.80;0.70;;;;;;;9.85;64.61;94196.09;5051307;28;20037;-73
2023/02/27 02:38:39;;;;;;;2.45;0.70;;;;;;;9.76;64.56;94207.31;5052487;28;20423;-73
2023/02/27 02:41:13;;;;;;;3.42;0.70;;;;;;;9.67;65.58;94223.69;5020527;28;20075;-73
2023/02/27 02:43:40;;;;;;;4.43;1.00;;;;;;;9.60;66.92;94232.97;5051141;28;20075;-73
2023/02/27 02:46:30;;;;;;;1.80;0.60;;;;;;;9.57;66.73;94223.66;5052378;28;20099;-73
2023/02/27 02:49:02;;;;;;;1.02;0.52;;;;;;;9.40;67.43;94225.16;5034470;28;20044;-73
2023/02/27 02:51:33;;;;;;;1.95;0.50;;;;;;;9.18;67.46;94236.56;5034790;28;20040;-73
2023/02/27 02:54:10;;;;;;;1.65;0.60;;;;;;;9.04;67.83;94226.56;5051266;28;20055;-73
2023/02/27 02:56:51;;;;;;;3.53;0.70;;;;;;;8.92;67.64;94215.50;5050583;28;20048;-73
2023/02/27 02:59:28;;;;;;;3.67;0.75;;;;;;;8.79;68.69;94238.22;5035090;28;20111;-72
2023/02/27 03:02:08;;;;;;;2.78;0.60;;;;;;;8.82;69.03;94245.72;5050851;28;20029;-72
2023/02/27 03:04:57;;;;;;;1.13;0.50;;;;;;;8.59;69.47;94231.31;5035094;28;20114;-73
2023/02/27 03:07:42;;;;;;;1.95;0.70;;;;;;;8.60;70.14;94235.53;5050942;28;20032;-73
2023/02/27 03:10:27;;;;;;;3.10;0.57;;;;;;;8.40;70.69;94232.84;5051756;28;20025;-73
2023/02/27 03:12:57;;;;;;;1.70;0.50;;;;;;;8.43;70.55;94218.81;5018460;28;20047;-73
2023/02/27 03:15:57;;;;;;;2.63;0.80;;;;;;;8.39;70.65;94199.34;5034171;28;20076;-73
2023/02/27 03:18:29;;;;;;;0.65;0.40;;;;;;;8.32;70.17;94198.97;5046975;28;20044;-73
2023/02/27 03:20:57;;;;;;;1.73;0.73;;;;;;;8.25;69.93;94201.28;5034109;28;20505;-73
2023/02/27 03:23:27;;;;;;;1.23;0.57;;;;;;;8.32;69.91;94211.13;5017518;28;20041;-73
2023/02/27 03:25:52;;;;;;;2.15;0.40;;;;;;;8.25;69.82;94221.16;5017587;28;20040;-73
2023/02/27 03:28:22;;;;;;;1.75;0.50;;;;;;;8.35;68.69;94234.16;5033878;28;20033;-73
2023/02/27 03:30:55;;;;;;;3.28;0.60;;;;;;;8.35;68.26;94258.25;5034306;28;20025;-73
2023/02/27 03:33:24;;;;;;;2.28;0.70;;;;;;;8.45;67.19;94281.66;5034604;28;20033;-73
2023/02/27 03:35:50;;;;;;;1.42;0.65;;;;;;;8.50;67.03;94303.63;5050168;28;20056;-73
2023/02/27 03:38:34;;;;;;;5.18;0.70;;;;;;;8.59;65.84;94324.53;5050404;28;20052;-73
2023/02/27 03:41:05;;;;;;;1.08;0.60;;;;;;;8.75;64.84;94322.31;5051657;28;20025;-73
2023/02/27 03:43:52;;;;;;;3.80;0.80;;;;;;;8.82;65.58;94318.25;5033647;28;20032;-73
2023/02/27 03:46:20;;;;;;;2.05;0.80;;;;;;;8.84;65.27;94295.63;5033382;28;20427;-73
2023/02/27 03:48:45;;;;;;;5.88;0.90;;;;;;;8.91;65.92;94319.22;5051667;28;20060;-73
2023/02/27 03:51:16;;;;;;;3.88;2.00;;;;;;;8.77;67.01;94314.38;5050028;28;20044;-73
2023/02/27 03:53:44;;;;;;;4.75;2.17;;;;;;;8.70;67.87;94325.25;5033657;28;20047;-73
2023/02/27 03:56:10;;;;;;;5.32;2.40;;;;;;;8.66;68.28;94307.50;5051005;28;20103;-73
2023/02/27 03:58:35;;;;;;;5.07;2.78;;;;;;;8.46;66.98;94327.28;5033298;28;20033;-73
2023/02/27 04:01:01;;;;;;;6.45;3.20;;;;;;;8.53;68.36;94338.78;5049765;28;20029;-73
2023/02/27 04:03:26;;;;;;;5.97;3.67;;;;;;;8.44;68.64;94357.66;5051309;28;20037;-73
2023/02/27 04:05:52;;;;;;;5.53;3.25;;;;;;;8.56;69.68;94373.97;5016673;28;20043;-73
2023/02/27 04:08:20;;;;;;;5.00;3.03;;;;;;;8.56;69.93;94379.16;5032697;28;20032;-72
2023/02/27 04:11:06;;;;;;;6.15;3.20;;;;;;;8.56;68.04;94381.72;5049609;28;20891;-73
2023/02/27 04:14:03;;;;;;;5.70;3.08;;;;;;;8.38;67.25;94387.41;5050722;28;20413;-73
2023/02/27 04:16:37;;;;;;;9.18;4.68;;;;;;;8.32;67.90;94397.44;5032985;28;20048;-73
2023/02/27 04:19:16;;;;;;;7.55;4.50;;;;;;;8.30;67.42;94389.78;5051210;28;20037;-73
2023/02/27 04:22:19;;;;;;;9.35;5.40;;;;;;;8.07;68.27;94373.53;5033116;28;20029;-73
2023/02/27 04:24:53;;;;;;;10.30;4.82;;;;;;;8.02;69.76;94386.84;4992404;28;20065;-73
2023/02/27 04:27:30;;;;;;;8.05;5.03;;;;;;;7.86;70.90;94401.13;5023622;28;20041;-73
2023/02/27 04:30:29;;;;;;;9.13;4.75;;;;;;;7.88;70.92;94391.44;5050869;28;20037;-73
2023/02/27 04:33:08;;;;;;;8.27;4.60;;;;;;;7.78;70.26;94414.63;5043082;28;20690;-73
2023/02/27 04:35:42;;;;;;;9.68;5.60;;;;;;;7.68;70.34;94424.84;5051127;28;20082;-73
2023/02/27 04:38:13;;;;;;;9.77;4.20;;;;;;;7.55;71.33;94435.34;5067604;28;20414;-73
2023/02/27 04:40:45;;;;;;;7.80;4.55;;;;;;;7.39;71.29;94425.34;5067917;28;20060;-73
2023/02/27 04:43:11;;;;;;;12.68;7.93;;;;;;;7.35;72.35;94459.28;5068715;28;20036;-73
2023/02/27 04:45:37;;;;;;;6.28;3.83;;;;;;;7.39;72.01;94465.88;5051850;28;20097;-73
2023/02/27 04:48:17;;;;;;;8.55;3.75;;;;;;;7.27;71.67;94498.63;5052088;28;20033;-73
2023/02/27 04:50:45;;;;;;;6.63;3.92;;;;;;;7.15;73.48;94505.53;5052089;28;20062;-73
2023/02/27 04:53:21;;;;;;;6.68;3.60;;;;;;;7.04;72.64;94464.16;5052883;28;20051;-73
2023/02/27 04:55:52;;;;;;;6.15;3.65;;;;;;;7.05;71.83;94501.13;5036771;28;20028;-73
2023/02/27 04:58:20;;;;;;;6.43;3.80;;;;;;;6.92;72.79;94502.06;5053359;28;20036;-73
2023/02/27 05:00:49;;;;;;;11.75;8.35;;;;;;;6.83;72.43;94495.00;5051770;28;20032;-73
2023/02/27 05:03:26;;;;;;;8.05;3.88;;;;;;;6.65;72.21;94499.72;5052994;28;20582;-73
2023/02/27 05:05:54;;;;;;;9.20;7.30;;;;;;;6.55;72.06;94501.34;5052641;28;20028;-73
2023/02/27 05:08:20;;;;;;;13.15;8.98;;;;;;;6.52;72.92;94517.03;5052857;28;20044;-73
2023/02/27 05:10:50;;;;;;;10.48;5.90;;;;;;;6.36;72.29;94506.16;5052401;28;20433;-73
2023/02/27 05:13:20;;;;;;;8.10;4.07;;;;;;;6.16;71.89;94515.31;5052947;28;20110;-73
2023/02/27 05:15:57;;;;;;;9.23;3.60;;;;;;;6.16;72.29;94544.50;5052612;28;20028;-73
2023/02/27 05:18:23;;;;;;;7.43;3.72;;;;;;;6.12;72.21;94540.47;5069858;28;20119;-73
2023/02/27 05:20:48;;;;;;;7.10;3.50;;;;;;;5.92;72.74;94546.97;5055990;28;20131;-72
2023/02/27 05:23:19;;;;;;;8.23;3.78;;;;;;;6.04;73.18;94548.75;5074083;28;20032;-73
2023/02/27 05:25:47;;;;;;;;;;;;;;;5.91;73.59;94537.59;5073187;28;20032;-73
2023/02/27 05:28:17;;;;;;;14.77;11.65;;;;;;;5.50;74.44;94528.34;5072837;28;19927;-73
2023/02/27 05:30:51;;;;;;;9.75;5.15;;;;;;;5.56;74.59;94555.47;5039432;28;20082;-73
2023/02/27 05:33:26;;;;;;;6.50;4.38;;;;;;;5.76;75.16;94554.94;5056850;28;20040;-73
2023/02/27 05:35:56;;;;;;;7.57;3.80;;;;;;;5.95;74.33;94543.41;5056832;28;20094;-73
2023/02/27 05:38:37;;;;;;;8.70;4.28;;;;;;;5.88;73.68;94555.88;5056208;28;20051;-73
2023/02/27 05:41:33;;;;;;;7.28;3.92;;;;;;;6.12;74.69;94555.94;5057648;28;20155;-73
2023/02/27 05:44:09;;;;;;;7.60;4.28;;;;;;;6.20;74.35;94561.41;5059405;28;20045;-73
2023/02/27 05:46:37;;;;;;;6.70;3.85;;;;;;;6.06;74.03;94558.97;5072461;28;20070;-73
2023/02/27 05:49:12;;;;;;;8.00;4.03;;;;;;;5.85;73.32;94556.09;5039627;28;20102;-72
2023/02/27 05:51:38;;;;;;;7.57;4.80;;;;;;;5.81;73.10;94547.72;5072256;28;20472;-73
2023/02/27 05:54:10;;;;;;;8.30;4.97;;;;;;;6.00;75.11;94559.38;5072500;28;20052;-73
2023/02/27 05:56:35;;;;;;;7.50;3.90;;;;;;;6.03;73.81;94566.91;5055351;28;20121;-73
2023/02/27 05:59:13;;;;;;;9.18;4.35;;;;;;;5.94;74.22;94564.97;5055759;28;20036;-73
2023/02/27 06:01:39;;;;;;;8.82;4.07;;;;;;;6.03;73.73;94579.81;5039639;28;20028;-73
2023/02/27 06:04:04;;;;;;;10.40;4.80;;;;;;;6.04;73.91;94584.03;5073844;28;20529;-73
2023/02/27 06:06:30;;;;;;;10.50;5.90;;;;;;;6.21;71.40;94599.19;5071923;28;20047;-73
2023/02/27 06:08:55;;;;;;;9.85;5.00;;;;;;;6.21;71.88;94590.59;5055463;28;20037;-73
2023/02/27 06:11:21;;;;;;;7.72;4.93;;;;;;;6.31;72.02;94589.03;5038625;28;20020;-73
2023/02/27 06:13:46;;;;;;;10.13;5.65;;;;;;;6.57;71.85;94591.53;5055437;28;20063;-73
2023/02/27 06:16:12;;;;;;;8.90;5.30;;;;;;;6.71;70.97;94588.81;5072946;28;20025;-72
2023/02/27 06:18:38;;;;;;;9.82;6.28;;;;;;;6.98;70.37;94598.91;5055218;28;20062;-73
2023/02/27 06:21:03;;;;;;;9.52;6.30;;;;;;;7.22;69.53;94614.41;5071720;28;20099;-73
2023/02/27 06:23:30;;;;;;;11.32;6.95;;;;;;;7.46;68.74;94593.69;5055184;28;20044;-73
2023/02/27 06:25:55;;;;;;;8.98;5.28;;;;;;;7.31;66.47;94567.22;5072787;28;20028;-73
2023/02/27 06:28:21;;;;;;;7.90;4.35;;;;;;;7.79;66.34;94608.44;5071595;28;20044;-73
2023/02/27 06:30:46;;;;;;;7.13;4.40;;;;;;;7.92;67.70;94617.88;5070850;28;20597;-73
2023/02/27 06:33:12;;;;;;;8.45;4.28;;;;;;;8.07;64.83;94603.78;5072111;28;20093;-73
2023/02/27 06:35:38;;;;;;;8.48;4.30;;;;;;;7.90;65.05;94620.56;5053925;28;20028;-73
2023/02/27 06:38:03;;;;;;;7.28;4.10;;;;;;;7.97;65.74;94621.78;5071483;28;20052;-73
2023/02/27 06:40:29;;;;;;;8.00;4.57;;;;;;;8.25;65.64;94627.44;5054636;28;20025;-73
2023/02/27 06:42:54;;;;;;;7.63;5.22;;;;;;;8.22;65.13;94614.75;5054407;28;20056;-73
2023/02/27 06:45:20;;;;;;;8.30;4.97;;;;;;;8.23;65.06;94618.97;5072330;28;20028;-73
2023/02/27 06:47:45;;;;;;;7.82;4.35;;;;;;;8.41;64.96;94625.34;5071115;28;20040;-73
2023/02/27 06:50:11;;;;;;;8.63;4.70;;;;;;;8.43;64.86;94622.63;5054661;28;20036;-73
2023/02/27 06:52:37;;;;;;;6.72;4.72;;;;;;;8.59;64.14;94610.16;5071101;28;20413;-73
2023/02/27 06:55:04;;;;;;;7.30;5.30;;;;;;;8.79;63.19;94592.22;5071004;28;20020;-74
2023/02/27 06:57:30;;;;;;;8.02;5.07;;;;;;;9.16;61.81;94596.13;5054283;28;20241;-73
2023/02/27 06:59:55;;;;;;;8.93;5.55;;;;;;;9.63;60.70;94578.44;5054366;28;20032;-74
2023/02/27 07:02:22;;;;;;;7.18;4.88;;;;;;;10.45;59.37;94601.00;5070835;28;20021;-73
2023/02/27 07:04:48;;;;;;;8.57;5.40;;;;;;;11.59;55.02;94581.44;5054263;28;20395;-73
2023/02/27 07:07:13;;;;;;;6.32;4.80;;;;;;;13.61;50.28;94590.25;5070597;28;20032;-73
2023/02/27 07:09:39;;;;;;;9.68;5.18;;;;;;;14.97;46.14;94591.34;5054087;28;20031;-73
2023/02/27 07:12:05;;;;;;;6.63;4.35;;;;;;;16.13;43.16;94571.28;5053972;28;20564;-73
2023/02/27 07:14:31;;;;;;;6.50;4.00;;;;;;;16.39;42.03;94608.59;5070474;28;20028;-72
2023/02/27 07:16:56;;;;;;;7.43;4.32;;;;;;;16.15;42.24;94616.50;5037318;28;20034;-74
2023/02/27 07:19:22;;;;;;;8.35;4.60;;;;;;;16.11;42.08;94609.97;5070631;28;20036;-73
2023/02/27 07:21:48;;;;;;;7.35;5.28;;;;;;;17.35;39.76;94606.75;5070391;28;20024;-73
2023/02/27 07:24:13;;;;;;;6.53;4.53;;;;;;;18.96;37.70;94622.28;5037243;28;20036;-72
2023/02/27 07:26:39;;;;;;;6.03;3.60;;;;;;;19.06;36.43;94620.19;5071584;28;20040;-73
2023/02/27 07:29:04;;;;;;;4.28;3.28;;;;;;;19.68;34.37;94599.63;5070402;28;20032;-73
2023/02/27 07:31:30;;;;;;;5.50;3.55;;;;;;;20.17;33.07;94612.00;5053545;28;20416;-73
2023/02/27 07:33:55;;;;;;;5.70;4.07;;;;;;;20.82;32.49;94621.41;5053517;28;20127;-73
2023/02/27 07:36:21;;;;;;;4.78;3.15;;;;;;;21.37;30.88;94614.38;5071320;28;20032;-73
2023/02/27 07:38:46;;;;;;;4.82;3.38;;;;;;;21.99;30.05;94606.38;5070264;28;20483;-73
2023/02/27 07:41:12;;;;;;;3.70;2.92;;;;;;;22.90;28.23;94608.31;5053298;28;20090;-73
2023/02/27 07:43:37;;;;;;;4.18;3.10;;;;;;;23.03;27.55;94605.69;5070161;28;20043;-73
2023/02/27 07:46:03;;;;;;;4.20;3.13;;;;;;;23.38;27.10;94618.59;5069985;28;20032;-71
2023/02/27 07:48:29;;;;;;;4.50;2.80;;;;;;;23.73;26.71;94618.22;5070146;28;20067;-71
2023/02/27 07:50:55;;;;;;;6.20;3.03;;;;;;;23.79;26.61;94627.97;5053370;28;20032;-73
2023/02/27 07:53:20;;;;;;;5.78;3.40;;;;;;;22.25;28.38;94627.56;5071314;28;20033;-72
2023/02/27 07:55:46;;;;;;;4.03;3.25;;;;;;;21.24;29.51;94629.34;5070864;28;20517;-71
2023/02/27 07:58:11;;;;;;;5.13;3.35;;;;;;;21.04;29.65;94627.41;5053402;28;20411;-73
2023/02/27 08:00:37;;;;;;;4.70;3.10;;;;;;;20.70;30.29;94622.97;5052918;28;20036;-73
2023/02/27 08:03:03;;;;;;;6.88;3.30;;;;;;;19.93;31.56;94637.75;5036494;28;20041;-73
2023/02/27 08:05:28;;;;;;;5.00;3.75;;;;;;;20.11;31.64;94644.41;5036423;28;20431;-74
2023/02/27 08:07:53;;;;;;;5.63;4.03;;;;;;;19.73;32.52;94661.28;5053033;28;20039;-73
2023/02/27 08:10:19;;;;;;;7.15;3.28;;;;;;;18.36;34.40;94650.38;5052985;28;20028;-73
2023/02/27 08:12:44;;;;;;;18.08;12.50;;;;;;;16.54;37.42;94638.38;5052841;28;20044;-73
2023/02/27 08:15:10;;;;;;;6.72;5.13;;;;;;;16.72;37.23;94642.59;5070841;28;20445;-73
2023/02/27 08:17:36;;;;;;;9.00;5.40;;;;;;;16.87;37.08;94648.81;5052736;28;20045;-73
2023/02/27 08:20:03;;;;;;;13.13;6.97;;;;;;;16.15;38.48;94646.13;5052770;28;20490;-73
2023/02/27 08:22:29;;;;;;;16.58;10.65;;;;;;;15.63;40.10;94644.63;5052999;28;20414;-73
2023/02/27 08:24:54;;;;;;;16.25;8.98;;;;;;;15.45;39.93;94650.97;5069504;28;20024;-73
2023/02/27 08:27:19;;;;;;;9.38;6.50;;;;;;;14.85;41.12;94634.47;5070671;28;20029;-73
2023/02/27 08:29:45;;;;;;;8.40;4.45;;;;;;;14.34;42.43;94645.75;5069496;28;20081;-73
2023/02/27 08:32:10;;;;;;;7.93;4.30;;;;;;;14.37;42.44;94655.91;5052613;28;20418;-73
2023/02/27 08:34:36;;;;;;;7.30;3.83;;;;;;;14.75;42.16;94658.09;5036199;28;20040;-73
2023/02/27 08:37:02;;;;;;;6.10;3.42;;;;;;;14.77;42.24;94651.91;5069367;28;20035;-73
2023/02/27 08:39:27;;;;;;;4.85;3.53;;;;;;;14.78;42.15;94654.34;5036321;28;20029;-73
2023/02/27 08:41:53;;;;;;;5.00;3.30;;;;;;;14.81;42.40;94653.22;5069315;28;20029;-73
2023/02/27 08:44:19;;;;;;;6.78;4.25;;;;;;;14.59;42.71;94644.13;5070532;28;20039;-73
2023/02/27 08:46:44;;;;;;;6.10;3.97;;;;;;;14.73;43.65;94656.63;5069273;28;20024;-72
2023/02/27 08:49:10;;;;;;;6.50;3.70;;;;;;;14.58;43.43;94637.28;5052825;28;20086;-72
2023/02/27 08:51:35;;;;;;;7.68;4.13;;;;;;;14.13;43.03;94654.78;5052667;28;20033;-72
2023/02/27 08:54:01;;;;;;;6.40;3.92;;;;;;;14.15;43.46;94665.91;5072280;28;20037;-73
2023/02/27 08:56:26;;;;;;;5.20;3.53;;;;;;;14.04;44.03;94659.13;5056401;28;20494;-73
2023/02/27 08:58:52;;;;;;;7.07;4.97;;;;;;;14.01;44.66;94662.03;5056445;28;20525;-73
2023/02/27 09:01:17;;;;;;;6.18;4.25;;;;;;;14.17;44.58;94666.53;5073085;28;20032;-73
2023/02/27 09:03:43;;;;;;;7.20;4.25;;;;;;;14.00;43.98;94673.44;5073215;28;20085;-73
2023/02/27 09:06:08;;;;;;;9.10;4.95;;;;;;;13.84;44.25;94681.13;5056154;28;20086;-73
2023/02/27 09:08:34;;;;;;;6.07;4.97;;;;;;;13.33;45.86;94688.63;5074306;28;20044;-73
2023/02/27 09:10:59;;;;;;;6.95;4.68;;;;;;;13.15;46.58;94679.94;5056174;28;20032;-73
2023/02/27 09:13:25;;;;;;;5.88;4.40;;;;;;;12.95;47.05;94677.44;5072759;28;20033;-73
2023/02/27 09:15:51;;;;;;;8.50;4.13;;;;;;;12.23;48.28;94684.13;5072926;28;20217;-72
2023/02/27 09:18:17;;;;;;;6.50;4.20;;;;;;;12.05;49.14;94681.41;5072864;28;20086;-73
2023/02/27 09:20:42;;;;;;;8.25;4.53;;;;;;;11.56;50.53;94698.78;5039221;28;20036;-72
2023/02/27 09:23:08;;;;;;;8.85;4.45;;;;;;;11.57;50.43;94676.19;5074527;28;20032;-74
2023/02/27 09:25:33;;;;;;;8.52;4.63;;;;;;;11.58;51.11;94694.25;5073961;28;20090;-74
2023/02/27 09:27:59;;;;;;;8.93;4.30;;;;;;;11.66;50.51;94680.56;5056169;28;20036;-74
2023/02/27 09:30:24;;;;;;;8.38;4.07;;;;;;;11.92;50.09;94696.47;5074018;28;20028;-74
2023/02/27 09:32:50;;;;;;;8.30;4.70;;;;;;;11.78;50.79;94679.50;5039542;28;20121;-75
2023/02/27 09:35:16;;;;;;;8.13;5.10;;;;;;;11.74;50.65;94687.69;5055995;28;20445;-75
2023/02/27 09:37:42;;;;;;;7.25;4.90;;;;;;;11.77;50.57;94680.44;5039564;28;20044;-74
2023/02/27 09:40:12;;;;;;;10.77;5.05;;;;;;;11.57;50.76;94692.63;5056120;28;20102;-75
2023/02/27 09:42:44;;;;;;;7.68;4.82;;;;;;;11.57;50.78;94703.03;5056313;28;20029;-75
2023/02/27 09:45:22;;;;;;;10.90;5.43;;;;;;;11.56;50.95;94700.56;5072869;28;20031;-74
2023/02/27 09:47:50;;;;;;;15.40;5.43;;;;;;;11.48;50.72;94687.41;5040628;28;20039;-74
2023/02/27 09:50:18;;;;;;;9.55;5.47;;;;;;;11.75;51.29;94713.56;5056299;28;20467;-75
2023/02/27 09:52:44;;;;;;;8.70;5.38;;;;;;;11.68;51.21;94707.28;5072430;28;20047;-75
2023/02/27 09:55:19;;;;;;;8.13;4.82;;;;;;;11.63;51.20;94710.28;5072623;28;20021;-75
2023/02/27 09:58:06;;;;;;;10.73;5.60;;;;;;;11.53;51.98;94704.28;5072338;28;20056;-75
2023/02/27 10:00:47;;;;;;;8.57;4.95;;;;;;;11.63;51.71;94715.50;5056852;28;20028;-75
2023/02/27 10:03:22;;;;;;;7.32;4.90;;;;;;;11.52;52.58;94731.22;5055846;28;20127;-75
2023/02/27 10:06:10;;;;;;;6.72;4.90;;;;;;;11.05;52.97;94730.97;5072262;28;20039;-75
2023/02/27 10:08:48;;;;;;;9.52;4.95;;;;;;;11.22;52.96;94734.72;5041660;28;20079;-74
2023/02/27 10:11:15;;;;;;;9.65;6.47;;;;;;;11.27;52.93;94723.94;5073206;28;20063;-74
2023/02/27 10:14:24;;;;;;;9.82;5.15;;;;;;;11.40;53.02;94716.69;5055787;28;20040;-75
2023/02/27 10:16:50;;;;;;;9.90;4.90;;;;;;;11.46;53.46;94730.94;5059299;28;20098;-75
2023/02/27 10:19:42;;;;;;;6.38;4.80;;;;;;;11.57;52.38;94723.84;5072371;28;20115;-75
2023/02/27 10:22:11;;;;;;;8.35;4.68;;;;;;;11.56;51.77;94722.22;5053231;28;20045;-75
2023/02/27 10:24:43;;;;;;;10.13;4.20;;;;;;;11.43;52.34;94710.41;5038704;28;20033;-75
2023/02/27 10:27:14;;;;;;;6.18;4.18;;;;;;;11.70;52.40;94733.16;5055619;28;20037;-74
2023/02/27 10:29:40;;;;;;;5.63;3.95;;;;;;;11.75;51.89;94704.94;5055142;28;20490;-75
2023/02/27 10:32:29;;;;;;;7.57;3.78;;;;;;;11.94;51.42;94736.22;5055046;28;20035;-75
2023/02/27 10:35:21;;;;;;;6.40;3.78;;;;;;;12.05;51.72;94725.66;5039229;28;20036;-75
2023/02/27 10:37:51;;;;;;;6.70;3.38;;;;;;;11.76;52.37;94717.03;5069532;28;20059;-75
2023/02/27 10:40:19;;;;;;;7.55;3.90;;;;;;;11.82;52.39;94714.69;5038647;28;20089;-76
2023/02/27 10:42:44;;;;;;;8.52;3.70;;;;;;;12.01;51.65;94718.28;5055293;28;20734;-75
2023/02/27 10:45:16;;;;;;;6.88;3.85;;;;;;;11.72;52.32;94710.44;5038345;28;20025;-75
2023/02/27 10:47:42;;;;;;;11.63;3.85;;;;;;;11.71;51.99;94704.41;5054926;28;20028;-75
2023/02/27 10:50:24;;;;;;;7.28;4.18;;;;;;;11.81;52.16;94720.00;5038033;28;20086;-75
2023/02/27 10:52:51;;;;;;;11.10;5.72;;;;;;;11.89;52.19;94727.19;5071440;28;20033;-75
2023/02/27 10:55:19;;;;;;;6.85;4.57;;;;;;;11.70;52.50;94723.59;5072638;28;20478;-75
2023/02/27 10:57:44;;;;;;;5.82;4.07;;;;;;;11.73;52.40;94693.84;5038066;28;20139;-75
2023/02/27 11:00:44;;;;;;;6.13;4.22;;;;;;;11.67;52.75;94692.59;5037828;28;20115;-75
2023/02/27 11:03:21;;;;;;;8.00;4.03;;;;;;;11.97;52.26;94698.69;5063336;28;20053;-75
2023/02/27 11:06:03;;;;;;;6.53;3.55;;;;;;;11.96;52.28;94692.66;5054468;28;20054;-75
2023/02/27 11:08:30;;;;;;;7.18;3.78;;;;;;;12.17;52.05;94696.88;5054656;28;20043;-75
2023/02/27 11:10:58;;;;;;;11.98;5.93;;;;;;;12.42;51.84;94711.06;5054599;28;20492;-75
2023/02/27 11:13:24;;;;;;;10.52;5.47;;;;;;;12.43;51.67;94700.53;5071120;28;20043;-75
2023/02/27 11:16:04;;;;;;;8.23;4.60;;;;;;;11.93;52.01;94661.69;5054283;28;20042;-75
2023/02/27 11:18:29;;;;;;;6.80;4.20;;;;;;;12.33;51.63;94691.09;5054737;28;20039;-75
2023/02/27 11:21:11;;;;;;;9.13;4.78;;;;;;;12.36;52.30;94683.00;5037342;28;20036;-75
2023/02/27 11:23:37;;;;;;;10.43;5.47;;;;;;;12.29;52.64;94687.94;5070712;28;20086;-75
2023/02/27 11:26:10;;;;;;;7.47;4.65;;;;;;;12.28;52.36;94691.50;5037513;28;20036;-75
2023/02/27 11:28:36;;;;;;;6.07;4.18;;;;;;;12.19;52.64;94687.16;5054036;28;20063;-75
2023/02/27 11:31:15;;;;;;;9.15;4.80;;;;;;;12.27;52.20;94680.28;5070702;28;20531;-75
2023/02/27 11:33:52;;;;;;;6.95;4.60;;;;;;;12.26;52.92;94663.00;5039032;28;20043;-75
2023/02/27 11:36:17;;;;;;;7.82;4.45;;;;;;;12.51;52.18;94661.56;5070074;28;20020;-75
2023/02/27 11:38:50;;;;;;;7.32;4.38;;;;;;;12.49;51.94;94676.50;5054022;28;20039;-75
2023/02/27 11:41:15;;;;;;;8.63;4.60;;;;;;;12.48;52.09;94680.09;5054161;28;20107;-75
2023/02/27 11:43:49;;;;;;;8.10;4.40;;;;;;;12.41;52.00;94681.59;5070774;28;20501;-75
2023/02/27 11:46:19;;;;;;;7.72;4.53;;;;;;;12.21;52.44;94687.84;5053998;28;20107;-75
2023/02/27 11:49:06;;;;;;;10.68;5.18;;;;;;;12.18;52.67;94685.50;5053752;28;20029;-75